Aérodrome :
LOGIN :

S'inscrire | Disclaimer

   EN    FR    IT 

 










Légende :    VFR   VFR Marginal   IFR   IFR Intensif   IFR Très Intensif
Visi : 
Plafond : 
>= 8 km
>= 3000ft
5 à 8 km
1000 à 3000 ft
1500m à 5 km
500 à 1000 ft
800 à 1500m
200 à 500 ft
< 800m
< 200 ft
Symboles :   Orages  Brouillard  Fortes neiges  Fortes précipitations  Vent > 20 kt
SIGMETs :   Divers  Orages  Givrage  Turbulence  Onde Orograph.  Cendres Volcan.







- Altitude de l'aérodrome : 120 ft
- Code IATA : MME
- Voir les cartes d'approche


EGNV - Durham Tees valley

DERNIER METAR :
  • 141450Z 24012KT 9999 SCT025 20/14 Q1013

METARs EXPIRÉS :
  • 141420Z 22014KT 9999 SCT027 18/13 Q1013
  • 141350Z 21009KT 9999 FEW025 BKN032 18/14 Q1013
  • 141320Z 21009KT 9999 VCSH FEW021 SCT037 19/14 Q1013
  • 141250Z 23010KT 200V260 9999 FEW024 SCT031 19/14 Q1013
  • 141220Z 23013KT 9999 FEW020 SCT035 19/14 Q1013

TAF TAF EGNV
Valide du 14 à 15h jusqu'au 14 à 21h UTC


141359Z 1415/1421 23009KT 9999 SCT030
ATIS : +44 9012 018 111
Pas de NOTAMs connus pour ce terrain.



MET'MAP, la Météo Aéronautique d'un coup d'oeil ! - Copyright ORBIFLY Décembre 2007 - Disclaimer

ORBIFLY MET'MAP TEAM :

Programmation & Développement : Alexandra Zaïnal
Conception & Développement : Baudouin d'Aumeries
Co-Programmation & Développement : Marc-Olivier Méhu
Soutien technique & logistique : Manuel Goepfert

Contact : metmap@orbifly.com




SOURCES & CREDITS :

   NOAA